sensor_id;sensor_type;location;lat;lon;timestamp;P1;durP1;ratioP1;P2;durP2;ratioP2
26060;SDS011;36331;51.378;0.018;2023-02-11T00:01:40;10.88;;;6.20;;
26060;SDS011;36331;51.378;0.018;2023-02-11T00:04:09;9.20;;;6.60;;
26060;SDS011;36331;51.378;0.018;2023-02-11T00:06:38;8.63;;;5.85;;
26060;SDS011;36331;51.378;0.018;2023-02-11T00:09:08;9.10;;;5.80;;
26060;SDS011;36331;51.378;0.018;2023-02-11T00:11:37;10.63;;;6.60;;
26060;SDS011;36331;51.378;0.018;2023-02-11T00:14:07;9.80;;;6.35;;
26060;SDS011;36331;51.378;0.018;2023-02-11T00:16:37;10.77;;;5.97;;
26060;SDS011;36331;51.378;0.018;2023-02-11T00:19:08;9.02;;;6.45;;
26060;SDS011;36331;51.378;0.018;2023-02-11T00:21:37;9.23;;;6.27;;
26060;SDS011;36331;51.378;0.018;2023-02-11T00:24:06;12.65;;;6.25;;
26060;SDS011;36331;51.378;0.018;2023-02-11T00:26:35;9.95;;;7.40;;
26060;SDS011;36331;51.378;0.018;2023-02-11T00:29:04;10.40;;;6.25;;
26060;SDS011;36331;51.378;0.018;2023-02-11T00:31:33;9.85;;;6.43;;
26060;SDS011;36331;51.378;0.018;2023-02-11T00:34:04;13.05;;;6.82;;
26060;SDS011;36331;51.378;0.018;2023-02-11T00:36:34;9.25;;;6.78;;
26060;SDS011;36331;51.378;0.018;2023-02-11T00:39:04;10.27;;;6.65;;
26060;SDS011;36331;51.378;0.018;2023-02-11T00:41:34;10.93;;;7.03;;
26060;SDS011;36331;51.378;0.018;2023-02-11T00:44:03;12.02;;;6.47;;
26060;SDS011;36331;51.378;0.018;2023-02-11T00:46:32;9.48;;;6.72;;
26060;SDS011;36331;51.378;0.018;2023-02-11T00:49:01;8.18;;;6.00;;
26060;SDS011;36331;51.378;0.018;2023-02-11T00:51:30;11.20;;;5.72;;
26060;SDS011;36331;51.378;0.018;2023-02-11T00:54:04;8.18;;;5.95;;
26060;SDS011;36331;51.378;0.018;2023-02-11T00:56:33;9.80;;;5.80;;
26060;SDS011;36331;51.378;0.018;2023-02-11T00:59:03;11.07;;;5.90;;
26060;SDS011;36331;51.378;0.018;2023-02-11T01:01:32;10.05;;;5.90;;
26060;SDS011;36331;51.378;0.018;2023-02-11T01:04:01;8.68;;;5.95;;
26060;SDS011;36331;51.378;0.018;2023-02-11T01:06:30;9.82;;;6.00;;
26060;SDS011;36331;51.378;0.018;2023-02-11T01:08:59;7.18;;;5.72;;
26060;SDS011;36331;51.378;0.018;2023-02-11T01:11:30;10.48;;;6.18;;
26060;SDS011;36331;51.378;0.018;2023-02-11T01:13:59;10.70;;;7.07;;
26060;SDS011;36331;51.378;0.018;2023-02-11T01:16:28;10.35;;;6.57;;
26060;SDS011;36331;51.378;0.018;2023-02-11T01:18:58;8.50;;;6.22;;
26060;SDS011;36331;51.378;0.018;2023-02-11T01:21:27;10.18;;;6.90;;
26060;SDS011;36331;51.378;0.018;2023-02-11T01:23:56;9.82;;;6.82;;
26060;SDS011;36331;51.378;0.018;2023-02-11T01:26:26;10.25;;;7.00;;
26060;SDS011;36331;51.378;0.018;2023-02-11T01:28:58;9.68;;;6.47;;
26060;SDS011;36331;51.378;0.018;2023-02-11T01:31:29;11.55;;;7.90;;
26060;SDS011;36331;51.378;0.018;2023-02-11T01:36:28;11.52;;;6.95;;
26060;SDS011;36331;51.378;0.018;2023-02-11T01:39:00;9.40;;;6.93;;
26060;SDS011;36331;51.378;0.018;2023-02-11T01:41:29;11.77;;;7.60;;
26060;SDS011;36331;51.378;0.018;2023-02-11T01:46:43;14.88;;;8.98;;
26060;SDS011;36331;51.378;0.018;2023-02-11T01:49:13;12.50;;;7.45;;
26060;SDS011;36331;51.378;0.018;2023-02-11T01:51:45;14.77;;;8.80;;
26060;SDS011;36331;51.378;0.018;2023-02-11T01:54:18;13.45;;;8.70;;
26060;SDS011;36331;51.378;0.018;2023-02-11T01:57:07;13.68;;;8.10;;
26060;SDS011;36331;51.378;0.018;2023-02-11T01:59:55;10.30;;;7.18;;
26060;SDS011;36331;51.378;0.018;2023-02-11T02:02:28;13.38;;;9.07;;
26060;SDS011;36331;51.378;0.018;2023-02-11T02:04:59;13.98;;;8.77;;
26060;SDS011;36331;51.378;0.018;2023-02-11T02:07:31;10.90;;;7.28;;
26060;SDS011;36331;51.378;0.018;2023-02-11T02:10:03;12.25;;;8.07;;
26060;SDS011;36331;51.378;0.018;2023-02-11T02:12:35;13.85;;;8.02;;
26060;SDS011;36331;51.378;0.018;2023-02-11T02:15:16;14.52;;;8.68;;
26060;SDS011;36331;51.378;0.018;2023-02-11T02:17:49;13.57;;;7.60;;
26060;SDS011;36331;51.378;0.018;2023-02-11T02:20:28;11.07;;;7.82;;
26060;SDS011;36331;51.378;0.018;2023-02-11T02:28:47;10.80;;;7.07;;
26060;SDS011;36331;51.378;0.018;2023-02-11T02:31:24;13.10;;;8.80;;
26060;SDS011;36331;51.378;0.018;2023-02-11T02:33:59;14.73;;;8.45;;
26060;SDS011;36331;51.378;0.018;2023-02-11T02:36:30;13.75;;;8.93;;
26060;SDS011;36331;51.378;0.018;2023-02-11T02:39:05;11.70;;;7.78;;
26060;SDS011;36331;51.378;0.018;2023-02-11T02:41:34;13.88;;;8.40;;
26060;SDS011;36331;51.378;0.018;2023-02-11T02:44:05;14.20;;;8.32;;
26060;SDS011;36331;51.378;0.018;2023-02-11T02:46:35;13.48;;;8.45;;
26060;SDS011;36331;51.378;0.018;2023-02-11T02:49:08;14.73;;;8.18;;
26060;SDS011;36331;51.378;0.018;2023-02-11T02:51:46;12.07;;;8.13;;
26060;SDS011;36331;51.378;0.018;2023-02-11T02:54:33;13.15;;;8.73;;
26060;SDS011;36331;51.378;0.018;2023-02-11T02:57:09;14.45;;;8.15;;
26060;SDS011;36331;51.378;0.018;2023-02-11T02:59:45;13.75;;;8.77;;
26060;SDS011;36331;51.378;0.018;2023-02-11T03:02:19;10.85;;;7.20;;
26060;SDS011;36331;51.378;0.018;2023-02-11T03:04:54;11.40;;;6.88;;
26060;SDS011;36331;51.378;0.018;2023-02-11T03:07:26;14.60;;;8.52;;
26060;SDS011;36331;51.378;0.018;2023-02-11T03:09:58;12.82;;;7.70;;
26060;SDS011;36331;51.378;0.018;2023-02-11T03:12:30;11.38;;;7.25;;
26060;SDS011;36331;51.378;0.018;2023-02-11T03:15:00;11.48;;;7.50;;
26060;SDS011;36331;51.378;0.018;2023-02-11T03:17:30;11.25;;;7.95;;
26060;SDS011;36331;51.378;0.018;2023-02-11T03:20:03;13.65;;;7.55;;
26060;SDS011;36331;51.378;0.018;2023-02-11T03:22:34;13.60;;;8.57;;
26060;SDS011;36331;51.378;0.018;2023-02-11T03:25:05;13.00;;;7.18;;
26060;SDS011;36331;51.378;0.018;2023-02-11T03:27:36;12.07;;;7.88;;
26060;SDS011;36331;51.378;0.018;2023-02-11T03:30:08;12.65;;;7.85;;
26060;SDS011;36331;51.378;0.018;2023-02-11T03:32:40;12.23;;;7.57;;
26060;SDS011;36331;51.378;0.018;2023-02-11T03:35:12;13.60;;;9.10;;
26060;SDS011;36331;51.378;0.018;2023-02-11T03:37:44;12.50;;;8.13;;
26060;SDS011;36331;51.378;0.018;2023-02-11T03:40:18;14.20;;;7.93;;
26060;SDS011;36331;51.378;0.018;2023-02-11T03:42:49;11.57;;;8.50;;
26060;SDS011;36331;51.378;0.018;2023-02-11T03:45:21;11.90;;;7.65;;
26060;SDS011;36331;51.378;0.018;2023-02-11T03:47:52;11.65;;;7.63;;
26060;SDS011;36331;51.378;0.018;2023-02-11T03:50:24;13.77;;;8.35;;
26060;SDS011;36331;51.378;0.018;2023-02-11T03:52:56;14.13;;;8.70;;
26060;SDS011;36331;51.378;0.018;2023-02-11T03:55:27;13.25;;;8.10;;
26060;SDS011;36331;51.378;0.018;2023-02-11T03:57:57;14.90;;;8.40;;
26060;SDS011;36331;51.378;0.018;2023-02-11T04:00:31;14.95;;;8.45;;
26060;SDS011;36331;51.378;0.018;2023-02-11T04:03:02;13.63;;;7.50;;
26060;SDS011;36331;51.378;0.018;2023-02-11T04:05:33;19.70;;;8.52;;
26060;SDS011;36331;51.378;0.018;2023-02-11T04:08:03;17.13;;;8.48;;
26060;SDS011;36331;51.378;0.018;2023-02-11T04:10:32;14.52;;;8.27;;
26060;SDS011;36331;51.378;0.018;2023-02-11T04:13:02;15.50;;;8.55;;
26060;SDS011;36331;51.378;0.018;2023-02-11T04:15:31;13.15;;;8.23;;
26060;SDS011;36331;51.378;0.018;2023-02-11T04:18:00;13.77;;;9.13;;
26060;SDS011;36331;51.378;0.018;2023-02-11T04:20:30;13.75;;;8.30;;
26060;SDS011;36331;51.378;0.018;2023-02-11T04:23:03;15.05;;;8.63;;
26060;SDS011;36331;51.378;0.018;2023-02-11T04:25:32;17.05;;;9.85;;
26060;SDS011;36331;51.378;0.018;2023-02-11T04:28:02;13.63;;;8.07;;
26060;SDS011;36331;51.378;0.018;2023-02-11T04:30:31;13.55;;;8.43;;
26060;SDS011;36331;51.378;0.018;2023-02-11T04:33:01;14.15;;;9.13;;
26060;SDS011;36331;51.378;0.018;2023-02-11T04:35:30;17.13;;;8.60;;
26060;SDS011;36331;51.378;0.018;2023-02-11T04:38:01;15.10;;;8.80;;
26060;SDS011;36331;51.378;0.018;2023-02-11T04:40:30;12.45;;;8.15;;
26060;SDS011;36331;51.378;0.018;2023-02-11T04:43:00;14.90;;;9.55;;
26060;SDS011;36331;51.378;0.018;2023-02-11T04:45:29;15.77;;;8.07;;
26060;SDS011;36331;51.378;0.018;2023-02-11T04:48:00;14.43;;;8.68;;
26060;SDS011;36331;51.378;0.018;2023-02-11T04:50:29;16.58;;;8.77;;
26060;SDS011;36331;51.378;0.018;2023-02-11T04:52:58;11.88;;;8.18;;
26060;SDS011;36331;51.378;0.018;2023-02-11T04:55:29;14.75;;;7.82;;
26060;SDS011;36331;51.378;0.018;2023-02-11T04:57:59;12.48;;;7.88;;
26060;SDS011;36331;51.378;0.018;2023-02-11T05:00:28;13.15;;;7.22;;
26060;SDS011;36331;51.378;0.018;2023-02-11T05:02:58;11.52;;;7.22;;
26060;SDS011;36331;51.378;0.018;2023-02-11T05:05:27;12.55;;;6.88;;
26060;SDS011;36331;51.378;0.018;2023-02-11T05:07:56;10.70;;;6.50;;
26060;SDS011;36331;51.378;0.018;2023-02-11T05:10:25;13.68;;;7.85;;
26060;SDS011;36331;51.378;0.018;2023-02-11T05:12:55;13.65;;;7.07;;
26060;SDS011;36331;51.378;0.018;2023-02-11T05:15:24;13.02;;;7.10;;
26060;SDS011;36331;51.378;0.018;2023-02-11T05:17:53;11.25;;;6.90;;
26060;SDS011;36331;51.378;0.018;2023-02-11T05:20:23;10.35;;;6.68;;
26060;SDS011;36331;51.378;0.018;2023-02-11T05:22:52;12.15;;;7.13;;
26060;SDS011;36331;51.378;0.018;2023-02-11T05:25:21;9.65;;;6.00;;
26060;SDS011;36331;51.378;0.018;2023-02-11T05:27:50;12.38;;;7.13;;
26060;SDS011;36331;51.378;0.018;2023-02-11T05:30:20;10.98;;;6.53;;
26060;SDS011;36331;51.378;0.018;2023-02-11T05:32:50;10.85;;;6.68;;
26060;SDS011;36331;51.378;0.018;2023-02-11T05:35:19;11.65;;;7.63;;
26060;SDS011;36331;51.378;0.018;2023-02-11T05:37:48;11.60;;;6.53;;
26060;SDS011;36331;51.378;0.018;2023-02-11T05:40:17;9.20;;;6.30;;
26060;SDS011;36331;51.378;0.018;2023-02-11T05:42:46;8.10;;;5.90;;
26060;SDS011;36331;51.378;0.018;2023-02-11T05:45:15;9.07;;;5.05;;
26060;SDS011;36331;51.378;0.018;2023-02-11T05:47:46;9.00;;;5.32;;
26060;SDS011;36331;51.378;0.018;2023-02-11T05:50:15;9.25;;;5.38;;
26060;SDS011;36331;51.378;0.018;2023-02-11T05:52:44;7.65;;;5.10;;
26060;SDS011;36331;51.378;0.018;2023-02-11T05:55:13;9.32;;;5.15;;
26060;SDS011;36331;51.378;0.018;2023-02-11T05:57:42;9.05;;;5.68;;
26060;SDS011;36331;51.378;0.018;2023-02-11T06:00:12;11.65;;;5.57;;
26060;SDS011;36331;51.378;0.018;2023-02-11T06:02:41;10.77;;;5.38;;
26060;SDS011;36331;51.378;0.018;2023-02-11T06:05:12;9.48;;;5.40;;
26060;SDS011;36331;51.378;0.018;2023-02-11T06:07:41;10.02;;;5.90;;
26060;SDS011;36331;51.378;0.018;2023-02-11T06:10:10;8.63;;;4.97;;
26060;SDS011;36331;51.378;0.018;2023-02-11T06:12:39;7.85;;;4.72;;
26060;SDS011;36331;51.378;0.018;2023-02-11T06:15:08;8.75;;;4.75;;
26060;SDS011;36331;51.378;0.018;2023-02-11T06:17:38;9.50;;;5.10;;
26060;SDS011;36331;51.378;0.018;2023-02-11T06:20:07;6.45;;;4.53;;
26060;SDS011;36331;51.378;0.018;2023-02-11T06:22:38;8.05;;;4.57;;
26060;SDS011;36331;51.378;0.018;2023-02-11T06:25:07;10.30;;;5.22;;
26060;SDS011;36331;51.378;0.018;2023-02-11T06:27:37;9.25;;;4.55;;
26060;SDS011;36331;51.378;0.018;2023-02-11T06:30:06;10.20;;;4.00;;
26060;SDS011;36331;51.378;0.018;2023-02-11T06:32:35;10.50;;;5.40;;
26060;SDS011;36331;51.378;0.018;2023-02-11T06:35:10;7.47;;;4.15;;
26060;SDS011;36331;51.378;0.018;2023-02-11T06:37:41;6.95;;;4.00;;
26060;SDS011;36331;51.378;0.018;2023-02-11T06:40:10;7.72;;;4.30;;
26060;SDS011;36331;51.378;0.018;2023-02-11T06:42:40;10.00;;;4.82;;
26060;SDS011;36331;51.378;0.018;2023-02-11T06:45:09;6.35;;;3.90;;
26060;SDS011;36331;51.378;0.018;2023-02-11T06:47:41;6.57;;;3.90;;
26060;SDS011;36331;51.378;0.018;2023-02-11T06:50:11;7.32;;;3.95;;
26060;SDS011;36331;51.378;0.018;2023-02-11T06:52:41;9.80;;;5.10;;
26060;SDS011;36331;51.378;0.018;2023-02-11T06:55:11;9.27;;;4.90;;
26060;SDS011;36331;51.378;0.018;2023-02-11T06:57:40;8.93;;;4.95;;
26060;SDS011;36331;51.378;0.018;2023-02-11T07:00:11;6.33;;;3.73;;
26060;SDS011;36331;51.378;0.018;2023-02-11T07:02:41;9.05;;;4.00;;
26060;SDS011;36331;51.378;0.018;2023-02-11T07:05:10;8.65;;;3.97;;
26060;SDS011;36331;51.378;0.018;2023-02-11T07:07:44;7.18;;;3.53;;
26060;SDS011;36331;51.378;0.018;2023-02-11T07:10:13;7.30;;;3.40;;
26060;SDS011;36331;51.378;0.018;2023-02-11T07:12:42;8.93;;;3.40;;
26060;SDS011;36331;51.378;0.018;2023-02-11T07:15:11;8.05;;;4.03;;
26060;SDS011;36331;51.378;0.018;2023-02-11T07:17:41;8.60;;;4.22;;
26060;SDS011;36331;51.378;0.018;2023-02-11T07:20:10;5.30;;;3.60;;
26060;SDS011;36331;51.378;0.018;2023-02-11T07:22:40;7.68;;;3.55;;
26060;SDS011;36331;51.378;0.018;2023-02-11T07:25:11;5.70;;;3.63;;
26060;SDS011;36331;51.378;0.018;2023-02-11T07:27:41;7.10;;;3.35;;
26060;SDS011;36331;51.378;0.018;2023-02-11T07:30:10;9.05;;;3.33;;
26060;SDS011;36331;51.378;0.018;2023-02-11T07:32:40;6.40;;;3.65;;
26060;SDS011;36331;51.378;0.018;2023-02-11T07:35:09;6.40;;;3.00;;
26060;SDS011;36331;51.378;0.018;2023-02-11T07:37:38;7.15;;;3.03;;
26060;SDS011;36331;51.378;0.018;2023-02-11T07:40:07;6.18;;;2.83;;
26060;SDS011;36331;51.378;0.018;2023-02-11T07:42:39;6.20;;;3.65;;
26060;SDS011;36331;51.378;0.018;2023-02-11T07:47:38;6.22;;;2.90;;
26060;SDS011;36331;51.378;0.018;2023-02-11T07:50:08;6.68;;;3.13;;
26060;SDS011;36331;51.378;0.018;2023-02-11T07:52:37;6.93;;;3.92;;
26060;SDS011;36331;51.378;0.018;2023-02-11T07:55:07;6.78;;;2.83;;
26060;SDS011;36331;51.378;0.018;2023-02-11T07:57:37;4.35;;;3.20;;
26060;SDS011;36331;51.378;0.018;2023-02-11T08:00:07;4.07;;;2.30;;
26060;SDS011;36331;51.378;0.018;2023-02-11T08:02:37;5.47;;;2.75;;
26060;SDS011;36331;51.378;0.018;2023-02-11T08:05:06;5.70;;;2.53;;
26060;SDS011;36331;51.378;0.018;2023-02-11T08:07:35;3.58;;;2.15;;
26060;SDS011;36331;51.378;0.018;2023-02-11T08:10:04;5.55;;;2.55;;
26060;SDS011;36331;51.378;0.018;2023-02-11T08:12:33;4.45;;;2.28;;
26060;SDS011;36331;51.378;0.018;2023-02-11T08:15:04;6.68;;;2.40;;
26060;SDS011;36331;51.378;0.018;2023-02-11T08:17:33;4.85;;;2.53;;
26060;SDS011;36331;51.378;0.018;2023-02-11T08:20:03;5.03;;;2.33;;
26060;SDS011;36331;51.378;0.018;2023-02-11T08:22:32;3.70;;;2.13;;
26060;SDS011;36331;51.378;0.018;2023-02-11T08:25:01;4.90;;;2.22;;
26060;SDS011;36331;51.378;0.018;2023-02-11T08:27:30;4.32;;;2.40;;
26060;SDS011;36331;51.378;0.018;2023-02-11T08:30:00;6.25;;;2.50;;
26060;SDS011;36331;51.378;0.018;2023-02-11T08:32:30;5.03;;;2.53;;
26060;SDS011;36331;51.378;0.018;2023-02-11T08:35:01;3.88;;;2.05;;
26060;SDS011;36331;51.378;0.018;2023-02-11T08:37:31;3.55;;;2.13;;
26060;SDS011;36331;51.378;0.018;2023-02-11T08:40:00;2.95;;;1.77;;
26060;SDS011;36331;51.378;0.018;2023-02-11T08:42:30;5.47;;;2.30;;
26060;SDS011;36331;51.378;0.018;2023-02-11T08:44:59;5.97;;;1.70;;
26060;SDS011;36331;51.378;0.018;2023-02-11T08:47:28;3.75;;;2.10;;
26060;SDS011;36331;51.378;0.018;2023-02-11T08:49:58;3.20;;;1.60;;
26060;SDS011;36331;51.378;0.018;2023-02-11T08:52:28;3.67;;;1.70;;
26060;SDS011;36331;51.378;0.018;2023-02-11T08:54:57;3.45;;;1.52;;
26060;SDS011;36331;51.378;0.018;2023-02-11T08:57:26;4.50;;;3.25;;
26060;SDS011;36331;51.378;0.018;2023-02-11T08:59:55;6.43;;;2.90;;
26060;SDS011;36331;51.378;0.018;2023-02-11T09:02:24;4.22;;;1.55;;
26060;SDS011;36331;51.378;0.018;2023-02-11T09:04:54;3.25;;;1.88;;
26060;SDS011;36331;51.378;0.018;2023-02-11T09:07:25;2.25;;;1.13;;
26060;SDS011;36331;51.378;0.018;2023-02-11T09:09:55;4.07;;;1.23;;
26060;SDS011;36331;51.378;0.018;2023-02-11T09:12:25;4.88;;;1.63;;
26060;SDS011;36331;51.378;0.018;2023-02-11T09:14:54;3.00;;;1.30;;
26060;SDS011;36331;51.378;0.018;2023-02-11T09:17:23;4.15;;;1.50;;
26060;SDS011;36331;51.378;0.018;2023-02-11T09:19:52;3.70;;;1.10;;
26060;SDS011;36331;51.378;0.018;2023-02-11T09:22:21;3.40;;;1.40;;
26060;SDS011;36331;51.378;0.018;2023-02-11T09:24:52;2.53;;;1.30;;
26060;SDS011;36331;51.378;0.018;2023-02-11T09:27:21;2.40;;;1.45;;
26060;SDS011;36331;51.378;0.018;2023-02-11T09:29:50;1.30;;;1.20;;
26060;SDS011;36331;51.378;0.018;2023-02-11T09:32:20;2.38;;;1.02;;
26060;SDS011;36331;51.378;0.018;2023-02-11T09:34:49;2.47;;;1.58;;
26060;SDS011;36331;51.378;0.018;2023-02-11T09:37:19;4.35;;;1.25;;
26060;SDS011;36331;51.378;0.018;2023-02-11T09:39:48;2.58;;;1.40;;
26060;SDS011;36331;51.378;0.018;2023-02-11T09:45:17;4.40;;;1.08;;
26060;SDS011;36331;51.378;0.018;2023-02-11T09:47:48;3.33;;;1.30;;
26060;SDS011;36331;51.378;0.018;2023-02-11T09:50:20;2.63;;;1.20;;
26060;SDS011;36331;51.378;0.018;2023-02-11T09:52:52;2.45;;;1.40;;
26060;SDS011;36331;51.378;0.018;2023-02-11T09:55:25;3.30;;;1.48;;
26060;SDS011;36331;51.378;0.018;2023-02-11T10:00:26;1.92;;;1.10;;
26060;SDS011;36331;51.378;0.018;2023-02-11T10:03:00;3.20;;;2.20;;
26060;SDS011;36331;51.378;0.018;2023-02-11T10:05:41;4.47;;;1.13;;
26060;SDS011;36331;51.378;0.018;2023-02-11T10:08:15;2.80;;;1.60;;
26060;SDS011;36331;51.378;0.018;2023-02-11T10:10:49;4.03;;;2.15;;
26060;SDS011;36331;51.378;0.018;2023-02-11T10:13:32;2.70;;;0.88;;
26060;SDS011;36331;51.378;0.018;2023-02-11T10:16:07;5.18;;;1.67;;
26060;SDS011;36331;51.378;0.018;2023-02-11T10:18:40;3.83;;;1.70;;
26060;SDS011;36331;51.378;0.018;2023-02-11T10:21:16;4.40;;;2.28;;
26060;SDS011;36331;51.378;0.018;2023-02-11T10:23:50;2.67;;;1.92;;
26060;SDS011;36331;51.378;0.018;2023-02-11T10:26:19;5.60;;;3.55;;
26060;SDS011;36331;51.378;0.018;2023-02-11T10:28:49;7.20;;;4.85;;
26060;SDS011;36331;51.378;0.018;2023-02-11T10:31:22;2.92;;;1.40;;
26060;SDS011;36331;51.378;0.018;2023-02-11T10:33:55;2.05;;;1.13;;
26060;SDS011;36331;51.378;0.018;2023-02-11T10:36:29;6.18;;;4.20;;
26060;SDS011;36331;51.378;0.018;2023-02-11T10:38:59;3.78;;;2.70;;
26060;SDS011;36331;51.378;0.018;2023-02-11T10:41:30;2.67;;;1.13;;
26060;SDS011;36331;51.378;0.018;2023-02-11T10:44:00;3.10;;;1.80;;
26060;SDS011;36331;51.378;0.018;2023-02-11T10:46:31;6.53;;;1.88;;
26060;SDS011;36331;51.378;0.018;2023-02-11T10:49:00;4.10;;;2.25;;
26060;SDS011;36331;51.378;0.018;2023-02-11T10:51:30;2.65;;;1.15;;
26060;SDS011;36331;51.378;0.018;2023-02-11T10:54:10;3.33;;;1.20;;
26060;SDS011;36331;51.378;0.018;2023-02-11T10:56:43;2.08;;;0.80;;
26060;SDS011;36331;51.378;0.018;2023-02-11T10:59:14;2.65;;;1.60;;
26060;SDS011;36331;51.378;0.018;2023-02-11T11:01:48;4.03;;;1.02;;
26060;SDS011;36331;51.378;0.018;2023-02-11T11:07:09;4.97;;;1.40;;
26060;SDS011;36331;51.378;0.018;2023-02-11T11:09:44;5.27;;;1.47;;
26060;SDS011;36331;51.378;0.018;2023-02-11T11:12:23;2.85;;;1.20;;
26060;SDS011;36331;51.378;0.018;2023-02-11T11:14:53;3.30;;;1.88;;
26060;SDS011;36331;51.378;0.018;2023-02-11T11:17:24;2.20;;;1.80;;
26060;SDS011;36331;51.378;0.018;2023-02-11T11:20:14;2.90;;;1.80;;
26060;SDS011;36331;51.378;0.018;2023-02-11T11:22:43;3.80;;;1.63;;
26060;SDS011;36331;51.378;0.018;2023-02-11T11:25:19;2.97;;;0.85;;
26060;SDS011;36331;51.378;0.018;2023-02-11T11:27:49;4.43;;;1.00;;
26060;SDS011;36331;51.378;0.018;2023-02-11T11:30:18;1.77;;;1.30;;
26060;SDS011;36331;51.378;0.018;2023-02-11T11:32:49;3.28;;;1.30;;
26060;SDS011;36331;51.378;0.018;2023-02-11T11:35:20;2.28;;;1.00;;
26060;SDS011;36331;51.378;0.018;2023-02-11T11:37:51;2.80;;;0.98;;
26060;SDS011;36331;51.378;0.018;2023-02-11T11:40:23;3.40;;;1.10;;
26060;SDS011;36331;51.378;0.018;2023-02-11T11:43:13;1.65;;;0.98;;
26060;SDS011;36331;51.378;0.018;2023-02-11T11:45:54;2.90;;;1.10;;
26060;SDS011;36331;51.378;0.018;2023-02-11T11:48:25;2.20;;;1.50;;
26060;SDS011;36331;51.378;0.018;2023-02-11T11:50:56;1.30;;;0.88;;
26060;SDS011;36331;51.378;0.018;2023-02-11T11:53:28;2.08;;;1.63;;
26060;SDS011;36331;51.378;0.018;2023-02-11T11:56:01;1.48;;;0.93;;
26060;SDS011;36331;51.378;0.018;2023-02-11T11:58:31;3.38;;;1.00;;
26060;SDS011;36331;51.378;0.018;2023-02-11T12:01:02;2.60;;;1.00;;
26060;SDS011;36331;51.378;0.018;2023-02-11T12:06:28;4.00;;;1.40;;
26060;SDS011;36331;51.378;0.018;2023-02-11T12:09:01;3.13;;;1.40;;
26060;SDS011;36331;51.378;0.018;2023-02-11T12:11:35;3.13;;;1.33;;
26060;SDS011;36331;51.378;0.018;2023-02-11T12:14:09;4.07;;;1.90;;
26060;SDS011;36331;51.378;0.018;2023-02-11T12:16:42;4.65;;;1.40;;
26060;SDS011;36331;51.378;0.018;2023-02-11T12:19:22;2.63;;;1.10;;
26060;SDS011;36331;51.378;0.018;2023-02-11T12:21:58;3.53;;;1.45;;
26060;SDS011;36331;51.378;0.018;2023-02-11T12:24:32;2.75;;;1.58;;
26060;SDS011;36331;51.378;0.018;2023-02-11T12:27:04;4.38;;;2.50;;
26060;SDS011;36331;51.378;0.018;2023-02-11T12:29:39;3.72;;;2.30;;
26060;SDS011;36331;51.378;0.018;2023-02-11T12:32:16;10.30;;;5.65;;
26060;SDS011;36331;51.378;0.018;2023-02-11T12:34:54;6.28;;;3.08;;
26060;SDS011;36331;51.378;0.018;2023-02-11T12:37:34;26.67;;;15.48;;
26060;SDS011;36331;51.378;0.018;2023-02-11T12:40:12;5.07;;;2.35;;
26060;SDS011;36331;51.378;0.018;2023-02-11T12:42:49;2.50;;;1.40;;
26060;SDS011;36331;51.378;0.018;2023-02-11T12:45:39;1.88;;;1.08;;
26060;SDS011;36331;51.378;0.018;2023-02-11T12:48:24;4.78;;;1.90;;
26060;SDS011;36331;51.378;0.018;2023-02-11T12:50:56;5.35;;;1.60;;
26060;SDS011;36331;51.378;0.018;2023-02-11T12:56:15;3.10;;;1.30;;
26060;SDS011;36331;51.378;0.018;2023-02-11T12:58:45;1.88;;;1.10;;
26060;SDS011;36331;51.378;0.018;2023-02-11T13:01:16;4.65;;;1.83;;
26060;SDS011;36331;51.378;0.018;2023-02-11T13:03:47;3.25;;;1.17;;
26060;SDS011;36331;51.378;0.018;2023-02-11T13:06:19;5.30;;;1.27;;
26060;SDS011;36331;51.378;0.018;2023-02-11T13:11:21;6.55;;;1.40;;
26060;SDS011;36331;51.378;0.018;2023-02-11T13:13:53;2.13;;;1.35;;
26060;SDS011;36331;51.378;0.018;2023-02-11T13:16:26;2.20;;;1.50;;
26060;SDS011;36331;51.378;0.018;2023-02-11T13:19:00;6.07;;;1.73;;
26060;SDS011;36331;51.378;0.018;2023-02-11T13:24:01;5.50;;;1.40;;
26060;SDS011;36331;51.378;0.018;2023-02-11T13:26:38;5.60;;;1.33;;
26060;SDS011;36331;51.378;0.018;2023-02-11T13:32:04;4.00;;;1.17;;
26060;SDS011;36331;51.378;0.018;2023-02-11T13:37:21;4.47;;;1.10;;
26060;SDS011;36331;51.378;0.018;2023-02-11T13:39:56;5.80;;;1.38;;
26060;SDS011;36331;51.378;0.018;2023-02-11T13:42:27;4.18;;;1.10;;
26060;SDS011;36331;51.378;0.018;2023-02-11T13:44:57;3.00;;;1.35;;
26060;SDS011;36331;51.378;0.018;2023-02-11T13:47:28;2.28;;;1.17;;
26060;SDS011;36331;51.378;0.018;2023-02-11T13:49:58;3.80;;;1.35;;
26060;SDS011;36331;51.378;0.018;2023-02-11T13:52:28;2.88;;;1.38;;
26060;SDS011;36331;51.378;0.018;2023-02-11T13:54:59;4.40;;;1.30;;
26060;SDS011;36331;51.378;0.018;2023-02-11T13:57:39;1.60;;;1.08;;
26060;SDS011;36331;51.378;0.018;2023-02-11T14:06:10;3.40;;;1.70;;
26060;SDS011;36331;51.378;0.018;2023-02-11T14:08:58;4.10;;;1.40;;
26060;SDS011;36331;51.378;0.018;2023-02-11T14:11:47;3.00;;;2.25;;
26060;SDS011;36331;51.378;0.018;2023-02-11T14:14:19;4.78;;;1.65;;
26060;SDS011;36331;51.378;0.018;2023-02-11T14:19:49;4.63;;;1.80;;
26060;SDS011;36331;51.378;0.018;2023-02-11T14:22:20;4.05;;;1.90;;
26060;SDS011;36331;51.378;0.018;2023-02-11T14:24:53;4.60;;;2.17;;
26060;SDS011;36331;51.378;0.018;2023-02-11T14:27:29;1.88;;;1.52;;
26060;SDS011;36331;51.378;0.018;2023-02-11T14:30:09;6.75;;;1.95;;
26060;SDS011;36331;51.378;0.018;2023-02-11T14:32:43;5.25;;;1.85;;
26060;SDS011;36331;51.378;0.018;2023-02-11T14:35:19;5.88;;;2.33;;
26060;SDS011;36331;51.378;0.018;2023-02-11T14:37:56;4.95;;;2.60;;
26060;SDS011;36331;51.378;0.018;2023-02-11T14:40:28;3.22;;;1.50;;
26060;SDS011;36331;51.378;0.018;2023-02-11T14:43:00;3.00;;;1.55;;
26060;SDS011;36331;51.378;0.018;2023-02-11T14:45:34;6.40;;;2.13;;
26060;SDS011;36331;51.378;0.018;2023-02-11T14:48:05;4.60;;;2.38;;
26060;SDS011;36331;51.378;0.018;2023-02-11T14:50:37;5.35;;;2.30;;
26060;SDS011;36331;51.378;0.018;2023-02-11T14:53:10;3.85;;;1.85;;
26060;SDS011;36331;51.378;0.018;2023-02-11T14:55:41;3.55;;;1.90;;
26060;SDS011;36331;51.378;0.018;2023-02-11T14:58:12;7.28;;;2.22;;
26060;SDS011;36331;51.378;0.018;2023-02-11T15:03:35;6.25;;;2.22;;
26060;SDS011;36331;51.378;0.018;2023-02-11T15:06:05;4.90;;;2.22;;
26060;SDS011;36331;51.378;0.018;2023-02-11T15:08:35;6.47;;;1.83;;
26060;SDS011;36331;51.378;0.018;2023-02-11T15:11:09;4.28;;;1.67;;
26060;SDS011;36331;51.378;0.018;2023-02-11T15:13:39;3.67;;;2.17;;
26060;SDS011;36331;51.378;0.018;2023-02-11T15:16:13;2.85;;;1.88;;
26060;SDS011;36331;51.378;0.018;2023-02-11T15:21:20;3.90;;;1.80;;
26060;SDS011;36331;51.378;0.018;2023-02-11T15:23:56;2.10;;;1.90;;
26060;SDS011;36331;51.378;0.018;2023-02-11T15:26:26;3.97;;;2.10;;
26060;SDS011;36331;51.378;0.018;2023-02-11T15:28:55;2.70;;;2.22;;
26060;SDS011;36331;51.378;0.018;2023-02-11T15:31:25;5.90;;;2.50;;
26060;SDS011;36331;51.378;0.018;2023-02-11T15:33:56;6.03;;;2.47;;
26060;SDS011;36331;51.378;0.018;2023-02-11T15:36:36;2.35;;;1.95;;
26060;SDS011;36331;51.378;0.018;2023-02-11T15:39:15;6.70;;;2.53;;
26060;SDS011;36331;51.378;0.018;2023-02-11T15:41:44;4.50;;;2.60;;
26060;SDS011;36331;51.378;0.018;2023-02-11T15:44:26;6.43;;;2.97;;
26060;SDS011;36331;51.378;0.018;2023-02-11T15:46:55;3.75;;;2.58;;
26060;SDS011;36331;51.378;0.018;2023-02-11T15:49:24;5.57;;;2.58;;
26060;SDS011;36331;51.378;0.018;2023-02-11T15:51:55;4.35;;;2.30;;
26060;SDS011;36331;51.378;0.018;2023-02-11T15:54:25;5.32;;;2.72;;
26060;SDS011;36331;51.378;0.018;2023-02-11T15:56:58;5.35;;;3.20;;
26060;SDS011;36331;51.378;0.018;2023-02-11T15:59:29;4.68;;;3.08;;
26060;SDS011;36331;51.378;0.018;2023-02-11T16:02:04;5.50;;;2.50;;